Time;durP1;ratioP1;P1;durP2;ratioP2;P2;SDS_P1;SDS_P2;PMS_P1;PMS_P2;Temp;Humidity;BMP_temperature;BMP_pressure;BME280_temperature;BME280_humidity;BME280_pressure;Samples;Min_cycle;Max_cycle;Signal;HPM_P1;HPM_P2
2023/12/26 00:00:47;;;;;;;21.97;14.63;;;;;;;6.52;58.55;95063.72;4976295;28;20192;-66
2023/12/26 00:03:12;;;;;;;19.93;14.33;;;;;;;6.49;58.47;95060.50;4989632;28;20223;-67
2023/12/26 00:05:39;;;;;;;19.33;13.93;;;;;;;6.60;58.29;95055.22;4985725;28;20219;-69
2023/12/26 00:08:06;;;;;;;21.17;14.30;;;;;;;6.61;58.10;95051.66;4988759;28;20231;-74
2023/12/26 00:10:32;;;;;;;18.87;13.67;;;;;;;6.56;58.41;95054.66;4987139;28;20218;-74
2023/12/26 00:13:00;;;;;;;25.80;15.63;;;;;;;6.61;58.14;95062.94;4986993;28;20214;-68
2023/12/26 00:15:25;;;;;;;18.40;14.47;;;;;;;6.40;58.59;95060.31;4989533;28;20241;-75
2023/12/26 00:17:51;;;;;;;21.47;14.90;;;;;;;6.39;58.48;95065.66;4984454;28;20219;-68
2023/12/26 00:20:17;;;;;;;19.87;14.13;;;;;;;6.31;58.79;95065.47;4984952;28;20282;-67
2023/12/26 00:22:42;;;;;;;18.47;13.50;;;;;;;6.38;58.77;95069.22;4993982;28;20229;-68
2023/12/26 00:25:08;;;;;;;22.47;14.70;;;;;;;6.33;58.59;95058.31;4981345;28;20231;-69
2023/12/26 00:27:34;;;;;;;19.30;13.33;;;;;;;6.44;58.66;95065.28;4993338;28;20207;-68
2023/12/26 00:29:59;;;;;;;19.40;13.13;;;;;;;6.38;58.75;95069.22;4987124;28;20282;-68
2023/12/26 00:32:25;;;;;;;19.23;14.03;;;;;;;6.44;58.87;95066.09;4980467;28;20224;-68
2023/12/26 00:34:50;;;;;;;19.37;13.40;;;;;;;6.42;58.64;95072.44;4987286;28;20224;-69
2023/12/26 00:37:16;;;;;;;19.53;13.57;;;;;;;6.37;58.81;95080.63;4984776;28;20306;-69
2023/12/26 00:39:41;;;;;;;20.00;13.07;;;;;;;6.48;58.98;95085.81;4987093;28;20218;-68
2023/12/26 00:42:07;;;;;;;18.07;12.90;;;;;;;6.23;59.17;95080.91;4992290;28;20225;-69
2023/12/26 00:44:32;;;;;;;29.10;13.93;;;;;;;6.08;59.47;95089.00;4988428;28;20242;-69
2023/12/26 00:46:57;;;;;;;21.80;13.97;;;;;;;6.01;59.24;95082.63;4990990;28;20219;-69
2023/12/26 00:49:23;;;;;;;19.43;13.90;;;;;;;5.91;59.60;95095.56;4982721;28;20223;-68
2023/12/26 00:51:48;;;;;;;20.27;13.70;;;;;;;6.05;59.36;95091.88;4959076;28;20195;-69
2023/12/26 00:54:14;;;;;;;17.60;14.30;;;;;;;6.05;59.56;95094.50;4989561;28;20187;-69
2023/12/26 00:56:39;;;;;;;20.43;14.13;;;;;;;6.06;59.72;95096.13;4992969;28;20245;-69
2023/12/26 00:59:05;;;;;;;17.93;13.40;;;;;;;6.08;59.66;95107.28;4990814;28;20237;-69
2023/12/26 01:01:30;;;;;;;22.17;14.23;;;;;;;6.06;59.43;95096.13;4979818;28;20215;-69
2023/12/26 01:03:56;;;;;;;19.93;13.77;;;;;;;6.08;59.46;95106.47;4987348;28;20185;-68
2023/12/26 01:06:21;;;;;;;16.50;12.67;;;;;;;6.06;59.54;95111.78;4975961;28;20227;-69
2023/12/26 01:08:46;;;;;;;19.07;13.57;;;;;;;5.92;59.80;95102.41;4981958;28;20220;-69
2023/12/26 01:11:12;;;;;;;20.70;12.80;;;;;;;6.00;59.74;95109.69;4983597;28;20235;-70
2023/12/26 01:13:38;;;;;;;20.60;13.80;;;;;;;6.05;59.44;95099.72;4981473;28;20242;-69
2023/12/26 01:16:04;;;;;;;20.67;11.77;;;;;;;5.93;60.09;95098.91;4986292;28;20187;-70
2023/12/26 01:18:31;;;;;;;17.80;13.20;;;;;;;5.80;59.65;95098.19;5004201;28;20187;-69
2023/12/26 01:20:57;;;;;;;18.07;12.37;;;;;;;5.93;59.92;95100.63;4963341;28;20235;-68
2023/12/26 01:23:22;;;;;;;18.53;13.00;;;;;;;6.00;59.35;95109.69;4973404;28;20219;-69
2023/12/26 01:25:48;;;;;;;20.67;13.43;;;;;;;5.97;59.54;95107.31;4984461;28;20223;-69
2023/12/26 01:28:15;;;;;;;15.87;12.30;;;;;;;5.86;59.96;95099.47;4989638;28;20228;-69
2023/12/26 01:30:40;;;;;;;17.07;12.33;;;;;;;5.90;59.79;95099.09;4995698;28;20194;-68
2023/12/26 01:33:06;;;;;;;19.57;12.90;;;;;;;5.92;59.65;95099.00;4986436;28;20229;-69
2023/12/26 01:35:32;;;;;;;16.63;13.07;;;;;;;6.01;59.74;95097.47;4989283;28;20219;-69
2023/12/26 01:37:57;;;;;;;18.70;12.97;;;;;;;5.97;59.71;95095.09;4987675;28;20322;-69
2023/12/26 01:40:23;;;;;;;21.60;12.77;;;;;;;5.99;59.80;95101.97;4987288;28;20218;-68
2023/12/26 01:42:49;;;;;;;16.20;12.37;;;;;;;5.93;59.67;95108.47;4985822;28;20179;-68
2023/12/26 01:45:15;;;;;;;17.80;12.17;;;;;;;5.89;59.75;95109.69;4987603;28;20195;-68
2023/12/26 01:47:47;;;;;;;15.13;12.27;;;;;;;5.83;59.99;95104.94;4986900;28;20226;-68
2023/12/26 01:50:14;;;;;;;15.80;11.47;;;;;;;5.85;60.15;95097.81;5000582;28;20372;-68
2023/12/26 01:52:40;;;;;;;18.53;12.67;;;;;;;5.78;60.07;95099.25;4972180;28;20247;-68
2023/12/26 01:55:08;;;;;;;18.33;12.13;;;;;;;5.74;60.32;95099.47;4968219;28;20192;-68
2023/12/26 01:57:35;;;;;;;18.50;11.93;;;;;;;5.78;59.94;95105.31;4985644;28;20293;-68
2023/12/26 02:00:03;;;;;;;14.07;10.47;;;;;;;5.79;59.95;95101.72;4983494;28;20219;-68
2023/12/26 02:02:32;;;;;;;16.57;10.77;;;;;;;5.84;59.64;95104.00;4993418;28;20227;-68
2023/12/26 02:04:58;;;;;;;13.77;10.73;;;;;;;5.89;59.85;95101.84;4986988;28;20234;-68
2023/12/26 02:07:23;;;;;;;12.93;9.77;;;;;;;6.04;59.11;95102.44;4984317;28;20239;-68
2023/12/26 02:09:49;;;;;;;14.13;9.30;;;;;;;6.00;59.25;95109.69;4998340;28;20195;-69
2023/12/26 02:12:16;;;;;;;13.73;9.60;;;;;;;6.09;59.47;95110.72;4986325;28;20207;-68
2023/12/26 02:14:41;;;;;;;15.40;10.30;;;;;;;6.17;59.09;95106.56;4986564;28;20270;-68
2023/12/26 02:17:12;;;;;;;13.67;9.97;;;;;;;6.01;59.46;95098.28;4993398;28;20214;-68
2023/12/26 02:19:46;;;;;;;17.53;10.00;;;;;;;6.00;59.58;95098.41;4987934;28;20238;-69
2023/12/26 02:22:12;;;;;;;14.77;11.30;;;;;;;5.93;59.02;95098.91;4997740;28;20219;-68
2023/12/26 02:24:42;;;;;;;15.73;11.43;;;;;;;5.83;59.58;95090.13;4977927;28;20246;-68
2023/12/26 02:27:19;;;;;;;16.87;11.57;;;;;;;5.79;60.09;95095.69;4987677;28;20223;-68
2023/12/26 02:29:48;;;;;;;14.73;10.57;;;;;;;5.76;60.08;95091.53;4967450;28;20225;-69
2023/12/26 02:32:19;;;;;;;16.97;12.20;;;;;;;5.74;59.83;95094.25;4988081;28;20219;-68
2023/12/26 02:34:50;;;;;;;16.63;11.80;;;;;;;5.77;59.90;95097.59;4987319;28;20327;-68
2023/12/26 02:37:16;;;;;;;17.07;11.90;;;;;;;5.71;59.98;95104.13;4986608;28;20219;-69
2023/12/26 02:39:43;;;;;;;16.50;11.80;;;;;;;5.58;60.54;95092.97;4973548;28;20216;-68
2023/12/26 02:42:13;;;;;;;17.37;11.83;;;;;;;5.60;60.55;95098.91;4997015;28;20245;-68
2023/12/26 02:44:38;;;;;;;17.43;11.23;;;;;;;5.53;60.42;95112.44;4984922;28;20247;-69
2023/12/26 02:47:04;;;;;;;14.73;11.53;;;;;;;5.54;60.39;95113.25;4989819;28;20252;-69
2023/12/26 02:49:29;;;;;;;17.67;11.27;;;;;;;5.47;60.72;95112.88;4979573;28;20235;-69
2023/12/26 02:51:55;;;;;;;17.93;11.33;;;;;;;5.50;60.30;95117.03;4982638;28;20187;-69
2023/12/26 02:54:20;;;;;;;17.67;11.37;;;;;;;5.40;60.46;95113.47;4990729;28;20198;-69
2023/12/26 02:56:46;;;;;;;14.67;11.17;;;;;;;5.50;60.62;95119.66;5007064;28;20223;-70
2023/12/26 02:59:11;;;;;;;17.97;11.33;;;;;;;5.61;59.85;95116.22;4985473;28;20247;-69
2023/12/26 03:01:37;;;;;;;14.30;10.80;;;;;;;5.22;61.11;95108.72;4989339;28;20238;-69
2023/12/26 03:04:02;;;;;;;19.33;10.97;;;;;;;5.29;60.96;95115.16;5000317;28;20273;-69
2023/12/26 03:06:28;;;;;;;16.20;11.57;;;;;;;5.35;60.82;95123.44;4987797;28;20255;-69
2023/12/26 03:08:53;;;;;;;14.87;11.57;;;;;;;5.43;60.80;95121.09;4985914;28;20226;-69
2023/12/26 03:11:19;;;;;;;14.17;10.30;;;;;;;5.37;60.61;95116.31;4982711;28;20227;-69
2023/12/26 03:13:44;;;;;;;14.77;10.93;;;;;;;5.31;60.65;95122.84;4986001;28;20227;-69
2023/12/26 03:16:10;;;;;;;15.03;10.80;;;;;;;5.41;60.61;95117.75;4990141;28;20279;-69
2023/12/26 03:18:35;;;;;;;15.70;10.77;;;;;;;5.34;60.66;95127.81;4986409;28;20191;-69
2023/12/26 03:21:00;;;;;;;14.87;10.47;;;;;;;5.40;60.63;95131.72;4965822;28;20224;-69
2023/12/26 03:23:26;;;;;;;16.70;10.60;;;;;;;5.40;60.76;95127.38;4985155;28;20219;-69
2023/12/26 03:25:51;;;;;;;14.80;11.03;;;;;;;5.31;60.75;95128.06;4985285;28;20223;-69
2023/12/26 03:28:17;;;;;;;15.10;11.57;;;;;;;5.31;60.56;95128.88;4988112;28;20269;-69
2023/12/26 03:30:42;;;;;;;14.70;10.70;;;;;;;5.18;60.93;95124.72;4984993;28;20184;-69
2023/12/26 03:33:08;;;;;;;16.50;11.47;;;;;;;5.08;61.24;95125.44;4990920;28;20222;-69
2023/12/26 03:35:33;;;;;;;13.33;10.37;;;;;;;5.22;60.80;95118.34;4985820;28;20219;-68
2023/12/26 03:37:58;;;;;;;14.47;10.37;;;;;;;5.15;61.04;95128.38;4983475;28;20230;-68
2023/12/26 03:40:24;;;;;;;16.23;10.77;;;;;;;5.25;60.69;95124.13;4987890;28;20223;-68
2023/12/26 03:42:50;;;;;;;16.13;10.40;;;;;;;5.22;60.68;95128.75;4992436;28;20193;-69
2023/12/26 03:45:15;;;;;;;13.60;10.10;;;;;;;5.26;60.88;95133.59;4985319;28;20310;-68
2023/12/26 03:47:41;;;;;;;15.60;10.40;;;;;;;5.21;60.46;95130.53;4989728;28;20237;-68
2023/12/26 03:50:07;;;;;;;17.83;10.87;;;;;;;5.19;61.06;95127.22;4990949;28;20214;-69
2023/12/26 03:52:34;;;;;;;13.60;10.23;;;;;;;4.96;61.36;95130.72;4985453;28;20278;-69
2023/12/26 03:54:59;;;;;;;14.50;11.27;;;;;;;5.03;61.30;95134.53;4996939;28;20292;-69
2023/12/26 03:57:24;;;;;;;13.57;10.53;;;;;;;5.07;61.02;95128.97;4999173;28;20191;-66
2023/12/26 03:59:50;;;;;;;13.47;10.53;;;;;;;4.73;61.75;95135.03;4969765;28;20222;-69
2023/12/26 04:02:15;;;;;;;16.33;10.90;;;;;;;4.83;61.55;95133.41;4978902;28;20223;-69
2023/12/26 04:04:41;;;;;;;13.77;10.47;;;;;;;4.94;61.42;95136.03;4986463;28;20230;-69
2023/12/26 04:07:06;;;;;;;14.20;10.23;;;;;;;4.93;61.57;95133.56;4989724;28;20238;-69
2023/12/26 04:09:32;;;;;;;16.70;11.20;;;;;;;4.89;61.79;95132.94;4990712;28;20187;-69
2023/12/26 04:11:57;;;;;;;14.57;10.90;;;;;;;4.94;61.43;95133.44;4980339;28;20234;-69
2023/12/26 04:14:23;;;;;;;14.40;11.57;;;;;;;4.95;61.27;95131.69;4984101;28;20215;-69
2023/12/26 04:16:48;;;;;;;13.03;10.20;;;;;;;5.03;60.91;95147.56;4982143;28;20280;-69
2023/12/26 04:19:14;;;;;;;11.83;10.43;;;;;;;4.96;61.30;95147.19;5006005;28;20360;-69
2023/12/26 04:21:39;;;;;;;14.03;10.33;;;;;;;4.95;61.49;95147.31;4991480;28;20183;-70
2023/12/26 04:24:05;;;;;;;14.60;10.50;;;;;;;4.95;61.17;95153.34;4983175;28;20283;-69
2023/12/26 04:26:30;;;;;;;16.30;10.67;;;;;;;5.03;61.19;95152.78;4991262;28;20246;-67
2023/12/26 04:28:56;;;;;;;17.77;11.83;;;;;;;5.02;61.13;95153.72;5005331;28;20266;-67
2023/12/26 04:31:21;;;;;;;15.40;10.90;;;;;;;4.92;61.63;95155.34;4989520;28;20273;-67
2023/12/26 04:33:47;;;;;;;13.43;10.57;;;;;;;4.75;62.21;95164.41;4982883;28;20305;-67
2023/12/26 04:36:12;;;;;;;12.63;10.00;;;;;;;4.78;62.23;95165.00;4985809;28;20234;-68
2023/12/26 04:38:38;;;;;;;15.93;10.53;;;;;;;4.80;62.21;95154.47;4985815;28;20215;-68
2023/12/26 04:41:09;;;;;;;12.23;10.50;;;;;;;4.72;62.08;95157.63;4992712;28;20228;-68
2023/12/26 04:43:34;;;;;;;13.63;10.77;;;;;;;4.70;61.98;95159.53;4982240;28;20223;-68
2023/12/26 04:46:00;;;;;;;13.17;9.87;;;;;;;4.67;62.22;95164.97;4967121;28;20206;-68
2023/12/26 04:48:25;;;;;;;12.97;9.57;;;;;;;4.62;62.33;95159.25;4986325;28;20198;-67
2023/12/26 04:50:51;;;;;;;12.23;9.57;;;;;;;4.66;62.07;95162.50;4979951;28;20226;-67
2023/12/26 04:53:16;;;;;;;12.77;10.20;;;;;;;4.63;62.06;95156.56;4984073;28;20243;-68
2023/12/26 04:55:42;;;;;;;13.20;9.77;;;;;;;4.75;61.93;95169.63;4989318;28;20227;-68
2023/12/26 04:58:07;;;;;;;15.27;10.43;;;;;;;4.79;61.86;95169.28;4989402;28;20191;-68
2023/12/26 05:00:32;;;;;;;16.80;9.87;;;;;;;4.74;62.15;95155.75;4984625;28;20245;-68
2023/12/26 05:02:58;;;;;;;13.40;9.70;;;;;;;4.71;62.35;95161.19;4986321;28;20219;-67
2023/12/26 05:05:23;;;;;;;13.13;10.27;;;;;;;4.72;62.14;95162.84;4988276;28;20225;-69
2023/12/26 05:07:49;;;;;;;13.60;10.23;;;;;;;4.73;62.49;95158.47;4986353;28;20234;-68
2023/12/26 05:10:15;;;;;;;12.53;10.20;;;;;;;4.70;62.31;95161.31;4981089;28;20223;-68
2023/12/26 05:12:40;;;;;;;15.03;10.80;;;;;;;4.61;62.32;95160.22;4966053;28;20200;-69
2023/12/26 05:15:06;;;;;;;12.27;9.70;;;;;;;4.55;62.51;95158.06;4982490;28;20302;-68
2023/12/26 05:17:31;;;;;;;15.33;10.30;;;;;;;4.66;62.14;95163.31;4974119;28;20218;-69
2023/12/26 05:19:57;;;;;;;12.80;9.53;;;;;;;4.57;62.19;95157.00;4988331;28;20230;-69
2023/12/26 05:22:22;;;;;;;13.30;9.33;;;;;;;4.56;62.65;95154.50;4989852;28;20227;-69
2023/12/26 05:24:48;;;;;;;12.97;9.03;;;;;;;4.58;62.12;95144.81;4989469;28;20254;-68
2023/12/26 05:27:13;;;;;;;17.00;10.13;;;;;;;4.60;62.43;95156.78;4999621;28;20218;-68
2023/12/26 05:29:43;;;;;;;12.27;9.73;;;;;;;4.50;62.36;95140.16;4986107;28;20222;-70
2023/12/26 05:32:09;;;;;;;11.50;9.33;;;;;;;4.56;62.55;95149.28;4982003;28;20219;-69
2023/12/26 05:34:34;;;;;;;14.20;10.17;;;;;;;4.41;62.74;95144.28;4992600;28;20222;-68
2023/12/26 05:37:00;;;;;;;14.27;9.17;;;;;;;4.39;62.74;95155.72;4988758;28;20195;-69
2023/12/26 05:39:25;;;;;;;14.23;9.63;;;;;;;4.26;63.26;95147.16;4994053;28;20201;-68
2023/12/26 05:41:51;;;;;;;12.03;9.13;;;;;;;4.25;63.33;95158.47;4986674;28;20219;-68
2023/12/26 05:44:16;;;;;;;14.47;10.33;;;;;;;4.39;62.55;95155.72;4986825;28;20230;-69
2023/12/26 05:46:43;;;;;;;13.33;9.90;;;;;;;4.46;62.37;95151.72;4986280;28;20223;-69
2023/12/26 05:49:09;;;;;;;11.63;9.20;;;;;;;4.25;62.56;95148.94;4998028;28;20266;-69
2023/12/26 05:51:34;;;;;;;13.23;9.53;;;;;;;4.19;63.03;95154.53;5008390;28;20187;-69
2023/12/26 05:53:59;;;;;;;13.33;9.53;;;;;;;4.39;63.10;95155.72;5010769;28;20223;-69
2023/12/26 05:56:25;;;;;;;13.17;9.10;;;;;;;4.39;62.47;95150.53;4982205;28;20219;-69
2023/12/26 05:58:50;;;;;;;12.17;9.10;;;;;;;4.53;62.38;95163.38;4987831;28;20223;-68
2023/12/26 06:01:16;;;;;;;11.80;8.87;;;;;;;4.47;62.16;95169.03;4991821;28;20222;-69
2023/12/26 06:03:42;;;;;;;15.00;10.83;;;;;;;4.40;62.62;95167.78;4988395;28;20199;-68
2023/12/26 06:06:13;;;;;;;12.73;10.00;;;;;;;4.50;62.19;95166.19;4983780;28;20235;-69
2023/12/26 06:08:39;;;;;;;11.53;9.40;;;;;;;4.47;62.34;95168.19;4992936;28;20277;-67
2023/12/26 06:11:05;;;;;;;11.60;9.30;;;;;;;4.44;62.55;95166.66;4976589;28;20228;-68
2023/12/26 06:13:30;;;;;;;13.80;9.30;;;;;;;4.43;62.29;95178.00;4970648;28;20223;-69
2023/12/26 06:15:56;;;;;;;13.93;9.30;;;;;;;4.32;63.25;95173.56;4985894;28;20196;-69
2023/12/26 06:18:23;;;;;;;13.07;9.80;;;;;;;4.47;62.52;95173.41;4986790;28;20253;-69
2023/12/26 06:20:48;;;;;;;13.30;9.90;;;;;;;4.47;62.69;95181.22;4975940;28;20263;-71
2023/12/26 06:23:14;;;;;;;14.23;10.13;;;;;;;4.46;62.59;95177.75;4981458;28;20258;-70
2023/12/26 06:25:40;;;;;;;15.60;12.00;;;;;;;4.50;62.70;95183.59;4985430;28;20219;-70
2023/12/26 06:28:05;;;;;;;14.37;11.40;;;;;;;4.49;62.46;95174.09;4991674;28;20209;-70
2023/12/26 06:30:30;;;;;;;13.13;9.77;;;;;;;4.61;62.45;95181.03;4991016;28;20186;-68
2023/12/26 06:32:56;;;;;;;14.73;10.87;;;;;;;4.61;62.15;95175.84;4990315;28;20242;-69
2023/12/26 06:35:22;;;;;;;14.97;10.10;;;;;;;4.60;62.71;95180.22;4985368;28;20230;-69
2023/12/26 06:37:47;;;;;;;14.23;10.50;;;;;;;4.49;62.70;95182.78;4987423;28;20270;-70
2023/12/26 06:40:13;;;;;;;14.23;11.30;;;;;;;4.62;62.30;95178.34;4988888;28;20230;-69
2023/12/26 06:42:38;;;;;;;11.37;9.13;;;;;;;4.63;62.43;95189.59;4985606;28;20183;-69
2023/12/26 06:45:04;;;;;;;13.63;9.63;;;;;;;4.31;63.33;95186.69;4985292;28;20306;-69
2023/12/26 06:47:29;;;;;;;13.30;9.23;;;;;;;4.41;63.31;95185.94;4986381;28;20218;-69
2023/12/26 06:49:55;;;;;;;11.53;9.50;;;;;;;4.53;62.31;95183.38;4988027;28;20233;-70
2023/12/26 06:52:20;;;;;;;13.43;9.73;;;;;;;4.50;62.94;95184.44;4994525;28;20223;-69
2023/12/26 06:54:46;;;;;;;14.10;9.77;;;;;;;4.67;62.50;95180.59;5007035;28;20262;-68
2023/12/26 06:57:15;;;;;;;13.20;9.37;;;;;;;4.62;62.98;95191.38;5005455;28;20250;-69
2023/12/26 06:59:46;;;;;;;12.73;9.27;;;;;;;4.56;63.20;95193.56;4988862;28;20277;-71
2023/12/26 07:02:12;;;;;;;14.87;8.90;;;;;;;4.72;62.86;95199.31;4988880;28;20230;-69
2023/12/26 07:04:37;;;;;;;13.27;8.90;;;;;;;4.93;62.12;95198.69;4990503;28;20215;-70
2023/12/26 07:07:03;;;;;;;14.60;8.63;;;;;;;5.06;61.91;95200.28;4984291;28;20258;-70
2023/12/26 07:09:29;;;;;;;13.73;7.73;;;;;;;5.04;61.94;95209.97;4985865;28;20234;-70
2023/12/26 07:11:54;;;;;;;15.80;9.47;;;;;;;5.19;61.76;95202.81;4988984;28;20301;-70
2023/12/26 07:14:20;;;;;;;12.93;8.70;;;;;;;5.21;62.08;95208.75;4990318;28;20227;-69
2023/12/26 07:16:45;;;;;;;12.10;8.73;;;;;;;5.28;61.39;95201.28;4988919;28;20238;-69
2023/12/26 07:19:11;;;;;;;11.63;9.07;;;;;;;5.28;62.18;95215.16;4988172;28;20234;-70
2023/12/26 07:21:36;;;;;;;13.63;8.80;;;;;;;5.52;61.38;95219.47;4993458;28;20200;-69
2023/12/26 07:24:02;;;;;;;10.80;8.77;;;;;;;5.58;61.27;95224.22;4987072;28;20223;-69
2023/12/26 07:26:27;;;;;;;14.23;9.70;;;;;;;5.83;60.68;95224.97;4962368;28;20277;-70
2023/12/26 07:28:52;;;;;;;14.40;10.17;;;;;;;5.82;60.64;95220.69;4974770;28;20227;-69
2023/12/26 07:31:20;;;;;;;15.77;11.23;;;;;;;5.68;61.12;95221.75;4991017;28;20233;-68
2023/12/26 07:33:46;;;;;;;15.53;10.83;;;;;;;5.79;61.00;95220.94;5001406;28;20203;-70
2023/12/26 07:36:12;;;;;;;16.73;11.67;;;;;;;5.75;60.84;95215.97;5001807;28;20225;-70
2023/12/26 07:38:38;;;;;;;17.40;11.70;;;;;;;5.90;61.03;95213.94;4986571;28;20215;-69
2023/12/26 07:41:03;;;;;;;16.13;12.80;;;;;;;5.94;60.57;95212.78;4987382;28;20246;-71
2023/12/26 07:43:29;;;;;;;19.00;13.93;;;;;;;6.03;60.46;95216.47;4996807;28;20222;-69
2023/12/26 07:45:56;;;;;;;17.10;13.10;;;;;;;6.06;59.88;95205.78;4993109;28;20285;-69
2023/12/26 07:48:21;;;;;;;19.83;15.77;;;;;;;6.13;60.14;95212.19;4985657;28;20242;-69
2023/12/26 07:50:47;;;;;;;19.67;14.07;;;;;;;6.43;59.54;95217.72;4989360;28;20284;-69
2023/12/26 07:53:12;;;;;;;21.13;15.33;;;;;;;6.19;59.88;95216.91;4984872;28;20227;-68
2023/12/26 07:55:38;;;;;;;22.07;15.77;;;;;;;6.22;59.84;95222.84;4983673;28;20229;-69
2023/12/26 07:58:03;;;;;;;20.13;15.33;;;;;;;6.31;59.78;95212.53;4989900;28;20192;-70
2023/12/26 08:00:29;;;;;;;20.17;15.00;;;;;;;6.41;59.35;95220.44;4985749;28;20187;-71
2023/12/26 08:02:54;;;;;;;18.33;14.13;;;;;;;6.60;59.00;95225.03;4986183;28;20223;-69
2023/12/26 08:05:19;;;;;;;19.63;14.63;;;;;;;6.70;58.51;95227.75;4985373;28;20222;-71
2023/12/26 08:07:45;;;;;;;20.30;15.10;;;;;;;6.76;58.69;95224.66;4981590;28;20266;-71
2023/12/26 08:10:10;;;;;;;19.97;14.93;;;;;;;6.85;57.83;95211.69;4991857;28;20226;-70
2023/12/26 08:12:36;;;;;;;18.00;14.40;;;;;;;6.95;57.96;95210.91;4981412;28;20214;-69
2023/12/26 08:15:02;;;;;;;21.67;16.67;;;;;;;7.14;57.22;95205.88;4986317;28;20226;-69
2023/12/26 08:17:27;;;;;;;23.83;17.90;;;;;;;7.06;57.41;95210.91;4988632;28;20219;-70
2023/12/26 08:19:52;;;;;;;25.93;18.57;;;;;;;7.01;57.93;95211.25;4995566;28;20222;-69
2023/12/26 08:22:18;;;;;;;25.77;18.50;;;;;;;7.19;57.43;95213.31;4988417;28;20231;-69
2023/12/26 08:24:44;;;;;;;21.50;17.43;;;;;;;7.38;56.62;95216.09;4986328;28;20198;-69
2023/12/26 08:27:09;;;;;;;26.00;18.87;;;;;;;7.36;56.73;95215.38;4982597;28;20226;-70
2023/12/26 08:29:35;;;;;;;20.97;17.17;;;;;;;7.23;57.17;95219.97;4983375;28;20219;-69
2023/12/26 08:32:00;;;;;;;22.90;17.20;;;;;;;7.36;56.90;95215.38;4982326;28;20226;-73
2023/12/26 08:34:26;;;;;;;21.90;17.17;;;;;;;7.39;57.02;95225.59;4986956;28;20239;-70
2023/12/26 08:36:51;;;;;;;23.20;18.63;;;;;;;7.54;56.71;95227.88;5001401;28;20193;-70
2023/12/26 08:39:17;;;;;;;23.60;18.10;;;;;;;7.70;56.11;95218.63;5005030;28;20217;-69
2023/12/26 08:41:43;;;;;;;23.80;17.30;;;;;;;7.76;55.85;95224.31;4985546;28;20218;-70
2023/12/26 08:44:09;;;;;;;20.37;16.80;;;;;;;7.73;55.43;95223.59;4984520;28;20250;-70
2023/12/26 08:46:34;;;;;;;23.77;16.03;;;;;;;7.85;55.47;95208.63;4984355;28;20227;-70
2023/12/26 08:49:00;;;;;;;24.10;17.17;;;;;;;7.98;54.86;95202.38;4979110;28;20194;-70
2023/12/26 08:51:25;;;;;;;20.63;16.50;;;;;;;7.92;54.94;95201.09;4993526;28;20179;-68
2023/12/26 08:53:52;;;;;;;18.20;16.30;;;;;;;7.97;54.93;95209.41;4986551;28;20252;-69
2023/12/26 08:56:17;;;;;;;22.53;16.27;;;;;;;8.13;54.71;95211.53;5000353;28;20223;-69
2023/12/26 08:58:43;;;;;;;19.20;15.97;;;;;;;8.20;54.09;95202.16;4976151;28;20215;-69
2023/12/26 09:01:10;;;;;;;19.33;16.33;;;;;;;8.30;53.49;95195.16;4988269;28;20222;-72
2023/12/26 09:03:37;;;;;;;24.97;17.20;;;;;;;8.42;53.99;95202.94;4986255;28;20179;-70
2023/12/26 09:06:03;;;;;;;19.60;16.77;;;;;;;8.52;53.43;95199.38;4987035;28;20269;-71
2023/12/26 09:08:29;;;;;;;21.67;16.23;;;;;;;8.59;52.72;95195.28;4983804;28;20220;-72
2023/12/26 09:10:54;;;;;;;20.30;16.77;;;;;;;8.48;53.18;95195.41;4971625;28;20216;-70
2023/12/26 09:13:21;;;;;;;24.33;17.90;;;;;;;8.56;52.70;95198.16;4984158;28;20255;-71
2023/12/26 09:15:48;;;;;;;22.23;17.33;;;;;;;8.67;52.52;95197.22;4983588;28;20226;-71
2023/12/26 09:18:15;;;;;;;19.13;17.10;;;;;;;8.70;52.47;95191.69;4979811;28;20230;-71
2023/12/26 09:20:40;;;;;;;24.97;17.37;;;;;;;8.77;52.35;95187.59;4980667;28;20310;-73
2023/12/26 09:23:06;;;;;;;21.00;17.33;;;;;;;8.90;52.07;95182.09;5003749;28;20289;-70
2023/12/26 09:25:31;;;;;;;21.30;17.27;;;;;;;9.04;51.62;95183.47;4988673;28;20222;-72
2023/12/26 09:27:56;;;;;;;22.17;17.15;;;;;;;9.04;51.58;95183.47;4984157;28;20215;-71
2023/12/26 09:30:22;;;;;;;19.77;16.50;;;;;;;9.18;51.57;95176.97;4986487;28;20182;-71
2023/12/26 09:32:48;;;;;;;19.55;15.57;;;;;;;9.31;51.43;95174.06;4983037;28;20249;-71
2023/12/26 09:35:14;;;;;;;21.08;15.77;;;;;;;9.22;51.54;95170.44;4988732;28;20227;-70
2023/12/26 09:37:39;;;;;;;17.27;13.90;;;;;;;9.26;50.87;95162.16;4984447;28;20258;-71
2023/12/26 09:40:11;;;;;;;20.60;13.83;;;;;;;9.36;50.49;95156.09;4987689;28;20195;-77
2023/12/26 09:42:36;;;;;;;15.90;13.65;;;;;;;9.43;49.89;95146.66;4958558;28;20184;-71
2023/12/26 09:45:03;;;;;;;18.40;13.85;;;;;;;9.55;49.95;95147.34;4987838;28;20218;-72
2023/12/26 09:47:30;;;;;;;14.95;11.43;;;;;;;9.64;49.82;95146.47;4990714;28;20219;-72
2023/12/26 09:49:56;;;;;;;13.20;9.43;;;;;;;9.76;48.61;95139.28;4975819;28;20230;-71
2023/12/26 09:52:22;;;;;;;12.80;8.55;;;;;;;9.85;47.48;95141.03;4976223;28;20215;-76
2023/12/26 09:54:49;;;;;;;10.45;8.77;;;;;;;9.91;47.43;95132.56;4966728;28;20207;-71
2023/12/26 09:57:15;;;;;;;12.20;9.27;;;;;;;10.02;47.05;95135.00;4988778;28;20216;-74
2023/12/26 09:59:42;;;;;;;14.52;10.32;;;;;;;10.11;46.99;95120.19;4969921;28;20211;-68
2023/12/26 10:02:14;;;;;;;17.83;11.93;;;;;;;10.05;47.39;95120.75;4985137;28;20219;-71
2023/12/26 10:04:40;;;;;;;18.35;12.15;;;;;;;10.19;47.68;95127.34;4992168;28;20219;-71
2023/12/26 10:07:06;;;;;;;18.50;12.13;;;;;;;10.26;47.01;95116.06;4983268;28;20227;-75
2023/12/26 10:09:32;;;;;;;14.60;11.82;;;;;;;10.40;46.82;95109.53;4988160;28;20187;-74
2023/12/26 10:11:58;;;;;;;17.65;12.52;;;;;;;10.42;46.44;95110.19;4985853;28;20245;-73
2023/12/26 10:14:28;;;;;;;16.23;13.00;;;;;;;10.36;46.81;95108.97;4983469;28;20281;-75
2023/12/26 10:16:55;;;;;;;18.45;13.20;;;;;;;10.51;46.75;95101.44;4986044;28;20230;-75
2023/12/26 10:19:21;;;;;;;16.40;13.50;;;;;;;10.65;46.80;95110.59;4991669;28;20250;-75
2023/12/26 10:21:47;;;;;;;18.05;12.45;;;;;;;10.82;45.50;95099.25;4983795;28;20215;-74
2023/12/26 10:24:12;;;;;;;16.63;11.75;;;;;;;10.81;45.83;95104.66;5011360;28;20215;-75
2023/12/26 10:26:38;;;;;;;12.00;9.38;;;;;;;10.93;45.25;95102.59;4985689;28;20712;-75
2023/12/26 10:29:03;;;;;;;13.90;9.80;;;;;;;11.01;45.43;95097.41;4993311;28;20227;-74
2023/12/26 10:31:29;;;;;;;12.57;9.77;;;;;;;11.14;44.70;95086.50;5000067;28;20224;-75
2023/12/26 10:33:54;;;;;;;12.00;8.80;;;;;;;11.30;43.66;95094.50;4982748;28;20306;-76
2023/12/26 10:36:20;;;;;;;11.90;8.18;;;;;;;11.39;43.54;95087.50;5004859;28;20195;-74
2023/12/26 10:38:46;;;;;;;13.43;9.05;;;;;;;11.42;43.14;95079.28;4986486;28;20298;-75
2023/12/26 10:41:24;;;;;;;14.90;8.27;;;;;;;11.45;43.34;95074.53;4992153;28;20215;-74
2023/12/26 10:43:53;;;;;;;12.30;7.95;;;;;;;11.55;42.84;95077.06;4986491;28;20222;-75
2023/12/26 10:46:20;;;;;;;9.15;7.55;;;;;;;11.62;42.91;95075.44;4983983;28;20227;-75
2023/12/26 10:48:51;;;;;;;9.80;7.30;;;;;;;11.91;41.49;95072.47;4989539;28;20191;-74
2023/12/26 10:51:22;;;;;;;13.02;8.25;;;;;;;11.99;41.42;95084.06;4973409;28;20267;-74
2023/12/26 10:54:00;;;;;;;11.90;7.97;;;;;;;12.09;40.81;95076.84;4988122;28;20227;-73
2023/12/26 10:56:28;;;;;;;12.63;7.55;;;;;;;12.14;40.85;95066.66;4990198;28;20289;-74
2023/12/26 10:58:55;;;;;;;10.65;7.60;;;;;;;12.09;41.13;95067.13;4989163;28;20219;-75
2023/12/26 13:53:15;;;;;;;7.50;5.15;;;;;;;14.02;34.22;94915.88;5001010;28;20234;-71
2023/12/26 13:56:19;;;;;;;10.73;5.05;;;;;;;13.78;35.65;94916.84;4990666;28;20221;-71
2023/12/26 13:59:22;;;;;;;7.45;4.32;;;;;;;13.51;35.73;94910.22;4993386;28;20226;-71
2023/12/26 14:02:25;;;;;;;14.45;8.13;;;;;;;13.48;35.89;94909.75;4995648;28;20222;-72
2023/12/26 14:05:28;;;;;;;11.30;7.22;;;;;;;13.45;36.23;94905.66;5008190;28;20230;-71
2023/12/26 14:08:31;;;;;;;8.77;5.00;;;;;;;13.39;36.48;94895.75;4974171;28;20238;-71
2023/12/26 14:11:34;;;;;;;7.43;4.20;;;;;;;13.31;36.75;94903.69;4974619;28;20228;-71
2023/12/26 14:14:37;;;;;;;9.15;4.80;;;;;;;13.20;37.00;94899.59;4985130;28;20257;-72
2023/12/26 14:17:40;;;;;;;9.70;4.93;;;;;;;13.16;37.23;94901.75;4991456;28;20270;-72